CheckWX is a tool to help pilots better visualize weather data.  It is not intended as a substitute for an official pre-flight weather briefing.

19:42:05 UTC

EGKK TAF
London Gatwick Airport
London, United Kingdom
TAF EGKK 211658Z 2118/2224 12008KT 9999 FEW040 TEMPO 2200/2214 6000 RA SHRA PROB30 TEMPO 2200/2207 4000 +SHRA TSRA BKN045CB BECMG 2209/2212 19010KT PROB40 TEMPO 2209/2214 3000 +SHRA BKN009 BKN025CB

Sep-21@
18:00 UTC

Sep-21 @ 18:00 UTC

Sep-22@
09:00 UTC

Sep-22 @ 09:00 UTC

TAF EGKK 211658Z 2118/2224 12008KT 9999 FEW040
Wind
  • 120° at 8 KTS
Cloud Levels
  • Few at 4,000' AGL

Sep-22@
00:00 UTC

Sep-22 @ 00:00 UTC

Sep-22@
07:00 UTC

Sep-22 @ 07:00 UTC

PROB30 TEMPO 2200/2207 4000 +SHRA TSRA BKN045CB

Temporary - 30% Likelihood

Temporary - 30% Likelihood during this time.

Conditions
Heavy Rain, Thunderstorm, Rain
Cloud Levels
  • Broken at 4,500' AGL

Sep-22@
00:00 UTC

Sep-22 @ 00:00 UTC

Sep-22@
14:00 UTC

Sep-22 @ 14:00 UTC

TEMPO 2200/2214 6000 RA SHRA

Temporary

Temporary Changes expected for less than half the time period

Conditions
Rain, Rain

Sep-22@
09:00 UTC

Sep-22 @ 09:00 UTC

Sep-22@
14:00 UTC

Sep-22 @ 14:00 UTC

PROB40 TEMPO 2209/2214 3000 +SHRA BKN009 BKN025CB

Temporary - 40% Likelihood

Temporary - 40% Likelihood during this time.

Conditions
Heavy Rain
Cloud Levels
  • Broken at 900' AGL
  • Broken at 2,500' AGL

Sep-22@
09:00 UTC

Sep-22 @ 09:00 UTC

Sep-23@
00:00 UTC

Sep-23 @ 00:00 UTC

BECMG 2209/2212 19010KT

Becoming

Becoming Conditions expected by Sun, Sep 22, 2019 @ 12:00 UTC

Wind
  • 190° at 10 KTS
Cloud Levels
  • Few at 4,000' AGL